Turneffe Island, Belize
Current Conditions -  °F | °C
As of 9:00 PM on Wednesday 22 Oct 2014 (Local Time) from MZBZ Reporting Station
Thunderstorm Thunderstorm  
Wind Chill: 77°   Ceiling: 1400
Heat Index: 78°   Visibility: 2.5mi
Dew Point: 75°   Wind: 9mph
Humidity: 94%   Direction: 350°N
Pressure: 29.81"   Gusts: NA
Location:  17.18°N, 87.57°W
Report Text: MZBZ 230300Z 35008KT 4000 TSRA FEW010CB BKN014 25/24 A2981 Q1009 BCMG AT0330 8000 RMK LR-2
Loading
Personal Weather Stations






























Interactive Weather Map
Tropical Storm Tracking
New forecast layout! Learn more

10-Day Weather Forecast

Advertisements
Track Severe Weather on mobile